createdAt,value
2019-05-13T00:01:17.988Z,9.75
2019-05-13T00:03:55.136Z,9.73
2019-05-13T00:06:30.371Z,9.71
2019-05-13T00:09:08.111Z,9.69
2019-05-13T00:11:43.832Z,9.68
2019-05-13T00:14:24.003Z,9.59
2019-05-13T00:16:59.609Z,9.55
2019-05-13T00:19:34.702Z,9.50
2019-05-13T00:22:09.817Z,9.46
2019-05-13T00:24:45.058Z,9.43
2019-05-13T00:27:23.500Z,9.40
2019-05-13T00:29:58.624Z,9.35
2019-05-13T00:32:33.790Z,9.34
2019-05-13T00:35:09.153Z,9.31
2019-05-13T00:37:44.628Z,9.26
2019-05-13T00:40:24.070Z,9.21
2019-05-13T00:42:59.407Z,9.16
2019-05-13T00:45:34.871Z,9.12
2019-05-13T00:48:10.143Z,9.09
2019-05-13T00:50:47.332Z,9.04
2019-05-13T00:53:23.735Z,9.04
2019-05-13T00:56:00.385Z,8.98
2019-05-13T00:58:35.671Z,8.93
2019-05-13T01:01:13.966Z,8.93
2019-05-13T01:03:49.457Z,8.88
2019-05-13T01:06:26.032Z,8.84
2019-05-13T01:09:01.184Z,8.81
2019-05-13T01:11:37.178Z,8.77
2019-05-13T01:14:14.321Z,8.74
2019-05-13T01:16:50.389Z,8.71
2019-05-13T01:19:25.743Z,8.70
2019-05-13T01:22:03.244Z,8.64
2019-05-13T01:24:37.846Z,8.58
2019-05-13T01:27:13.998Z,8.55
2019-05-13T01:29:49.453Z,8.54
2019-05-13T01:32:24.556Z,8.48
2019-05-13T01:34:59.816Z,8.45
2019-05-13T01:37:42.351Z,8.44
2019-05-13T01:40:14.183Z,8.41
2019-05-13T01:42:49.306Z,8.37
2019-05-13T01:45:24.478Z,8.34
2019-05-13T01:47:59.742Z,8.34
2019-05-13T01:50:34.968Z,8.29
2019-05-13T01:53:10.130Z,8.26
2019-05-13T01:55:45.302Z,8.25
2019-05-13T01:58:23.748Z,8.21
2019-05-13T02:00:59.146Z,8.13
2019-05-13T02:03:34.611Z,8.13
2019-05-13T02:06:09.921Z,8.08
2019-05-13T02:08:45.261Z,8.04
2019-05-13T02:11:20.523Z,8.04
2019-05-13T02:13:55.711Z,8.01
2019-05-13T02:16:30.816Z,7.95
2019-05-13T02:19:06.163Z,7.93
2019-05-13T02:21:43.732Z,7.91
2019-05-13T02:24:19.217Z,7.89
2019-05-13T02:26:54.522Z,7.88
2019-05-13T02:29:29.873Z,7.83
2019-05-13T02:32:05.005Z,7.83
2019-05-13T02:34:43.702Z,7.79
2019-05-13T02:37:22.895Z,7.73
2019-05-13T02:39:56.356Z,7.66
2019-05-13T02:42:32.848Z,7.62
2019-05-13T02:45:08.231Z,7.62
2019-05-13T02:47:44.597Z,7.61
2019-05-13T02:50:22.381Z,7.57
2019-05-13T02:52:57.780Z,7.54
2019-05-13T02:55:33.178Z,7.52
2019-05-13T02:58:08.372Z,7.53
2019-05-13T03:00:44.313Z,7.50
2019-05-13T03:03:23.132Z,7.46
2019-05-13T03:05:57.509Z,7.43
2019-05-13T03:08:48.330Z,7.43
2019-05-13T03:11:14.881Z,7.41
2019-05-13T03:13:52.983Z,7.40
2019-05-13T03:16:32.623Z,7.37
2019-05-13T03:19:08.129Z,7.37
2019-05-13T03:21:43.266Z,7.34
2019-05-13T03:24:18.599Z,7.34
2019-05-13T03:26:53.741Z,7.30
2019-05-13T03:29:33.131Z,7.30
2019-05-13T03:32:08.122Z,7.23
2019-05-13T03:34:45.289Z,7.25
2019-05-13T03:37:26.042Z,7.26
2019-05-13T03:40:03.059Z,7.25
2019-05-13T03:42:43.051Z,7.25
2019-05-13T03:45:21.884Z,7.27
2019-05-13T03:47:56.738Z,7.28
2019-05-13T03:50:34.543Z,7.27
2019-05-13T03:53:08.824Z,7.29
2019-05-13T03:55:45.169Z,7.32
2019-05-13T03:58:24.240Z,7.34
2019-05-13T04:01:02.494Z,7.35
2019-05-13T04:03:36.764Z,7.41
2019-05-13T04:06:13.496Z,7.43
2019-05-13T04:08:49.500Z,7.47
2019-05-13T04:11:25.981Z,7.56
2019-05-13T04:14:03.301Z,7.57
2019-05-13T04:16:38.537Z,7.61
2019-05-13T04:19:14.917Z,7.64
2019-05-13T04:21:52.626Z,7.71
2019-05-13T04:24:28.087Z,7.72
2019-05-13T04:27:03.415Z,7.77
2019-05-13T04:29:38.855Z,7.78
2019-05-13T04:32:14.054Z,7.79
2019-05-13T04:34:52.656Z,7.83
2019-05-13T04:37:26.589Z,7.88
2019-05-13T04:40:03.884Z,7.93
2019-05-13T04:42:42.566Z,7.95
2019-05-13T04:45:16.379Z,7.99
2019-05-13T04:47:53.845Z,8.07
2019-05-13T04:50:32.649Z,8.13
2019-05-13T04:53:07.101Z,8.18
2019-05-13T04:55:44.159Z,8.23
2019-05-13T04:58:23.162Z,8.25
2019-05-13T05:01:14.124Z,8.31
2019-05-13T05:03:57.559Z,8.40
2019-05-13T05:06:52.761Z,8.46
2019-05-13T05:09:40.316Z,8.57
2019-05-13T05:12:35.382Z,8.63
2019-05-13T05:15:23.526Z,8.68
2019-05-13T05:18:07.312Z,8.73
2019-05-13T05:20:49.274Z,8.85
2019-05-13T05:23:31.950Z,8.94
2019-05-13T05:26:31.487Z,8.98
2019-05-13T05:29:28.968Z,9.05
2019-05-13T05:32:26.409Z,9.10
2019-05-13T05:35:18.335Z,9.16
2019-05-13T05:38:05.016Z,9.24
2019-05-13T05:40:42.481Z,9.33
2019-05-13T05:43:18.495Z,9.40
2019-05-13T05:45:54.247Z,9.47
2019-05-13T05:48:32.277Z,9.57
2019-05-13T05:51:09.343Z,9.66
2019-05-13T05:53:45.163Z,9.79
2019-05-13T05:56:21.998Z,9.84
2019-05-13T05:59:02.765Z,9.92
2019-05-13T06:01:37.577Z,10.00
2019-05-13T06:04:12.807Z,10.06
2019-05-13T06:06:48.860Z,10.14
2019-05-13T06:09:27.234Z,10.21
2019-05-13T06:12:02.855Z,10.30
2019-05-13T06:14:42.297Z,10.45
2019-05-13T06:17:17.231Z,10.53
2019-05-13T06:19:52.434Z,10.67
2019-05-13T06:22:28.067Z,10.69
2019-05-13T06:25:03.706Z,10.79
2019-05-13T06:27:42.217Z,10.80
2019-05-13T06:30:18.111Z,10.91
2019-05-13T06:32:55.326Z,10.97
2019-05-13T06:35:32.314Z,11.08
2019-05-13T06:38:11.747Z,11.17
2019-05-13T06:40:59.370Z,11.24
2019-05-13T06:43:23.648Z,11.34
2019-05-13T06:45:58.961Z,11.46
2019-05-13T06:48:34.203Z,11.53
2019-05-13T06:51:11.728Z,11.56
2019-05-13T06:53:55.045Z,11.68
2019-05-13T06:56:37.910Z,11.80
2019-05-13T06:59:15.934Z,11.95
2019-05-13T07:01:51.474Z,12.06
2019-05-13T07:04:28.893Z,12.22
2019-05-13T07:07:13.083Z,12.44
2019-05-13T07:09:45.736Z,12.65
2019-05-13T07:12:22.970Z,12.80
2019-05-13T07:14:59.379Z,13.02
2019-05-13T07:20:34.730Z,13.39
2019-05-13T07:23:12.399Z,13.49
2019-05-13T07:25:52.460Z,13.69
2019-05-13T07:28:27.716Z,13.99
2019-05-13T07:31:07.413Z,14.70
2019-05-13T07:33:42.789Z,15.98
2019-05-13T07:36:22.673Z,17.04
2019-05-13T07:39:01.406Z,17.89
2019-05-13T07:41:42.199Z,19.11
2019-05-13T07:44:16.585Z,20.09
2019-05-13T07:46:54.324Z,21.40
2019-05-13T07:49:31.590Z,21.98
2019-05-13T07:52:07.256Z,22.21
2019-05-13T07:54:43.029Z,22.75
2019-05-13T07:57:18.476Z,23.60
2019-05-13T08:00:02.021Z,23.90
2019-05-13T08:02:38.817Z,23.51
2019-05-13T08:05:17.874Z,24.34
2019-05-13T08:07:54.262Z,24.81
2019-05-13T08:10:33.739Z,24.64
2019-05-13T08:13:11.651Z,26.02
2019-05-13T08:15:54.105Z,25.40
2019-05-13T08:18:26.437Z,24.40
2019-05-13T08:21:13.800Z,23.37
2019-05-13T08:23:52.715Z,24.36
2019-05-13T08:26:32.263Z,25.02
2019-05-13T08:29:12.563Z,24.73
2019-05-13T08:31:48.017Z,24.79
2019-05-13T08:34:28.180Z,24.66
2019-05-13T08:37:13.857Z,24.34
2019-05-13T08:39:52.213Z,25.32
2019-05-13T08:42:29.248Z,25.18
2019-05-13T08:45:12.067Z,23.68
2019-05-13T08:47:48.035Z,21.79
2019-05-13T08:50:23.623Z,20.90
2019-05-13T08:52:59.077Z,20.51
2019-05-13T08:55:38.111Z,20.33
2019-05-13T08:58:13.354Z,21.23
2019-05-13T09:01:02.160Z,22.63
2019-05-13T09:03:41.440Z,22.29
2019-05-13T09:06:31.235Z,21.45
2019-05-13T09:09:11.326Z,20.57
2019-05-13T09:11:51.417Z,19.33
2019-05-13T09:14:27.886Z,18.93
2019-05-13T09:17:03.287Z,18.69
2019-05-13T09:19:42.364Z,18.12
2019-05-13T09:22:17.946Z,17.65
2019-05-13T09:24:53.880Z,17.49
2019-05-13T09:27:31.894Z,17.33
2019-05-13T09:30:07.914Z,16.97
2019-05-13T09:32:43.806Z,16.64
2019-05-13T09:35:19.415Z,16.30
2019-05-13T09:37:54.722Z,16.18
2019-05-13T09:40:31.443Z,16.53
2019-05-13T09:43:06.768Z,17.27
2019-05-13T09:45:42.144Z,17.74
2019-05-13T09:48:18.236Z,17.73
2019-05-13T09:50:54.400Z,17.40
2019-05-13T09:53:29.590Z,17.07
2019-05-13T09:56:05.028Z,17.03
2019-05-13T09:58:42.098Z,16.71
2019-05-13T10:01:18.507Z,16.28
2019-05-13T10:03:58.396Z,16.17
2019-05-13T10:06:34.871Z,16.11
2019-05-13T10:09:12.535Z,17.88
2019-05-13T10:11:47.770Z,20.14
2019-05-13T10:14:23.284Z,21.93
2019-05-13T10:16:58.583Z,22.70
2019-05-13T10:19:41.703Z,22.17
2019-05-13T10:22:25.707Z,21.17
2019-05-13T10:25:06.325Z,19.50
2019-05-13T10:27:42.087Z,18.46
2019-05-13T10:30:22.347Z,17.86
2019-05-13T10:32:59.556Z,17.75
2019-05-13T10:35:36.667Z,18.35
2019-05-13T10:38:13.469Z,20.18
2019-05-13T10:40:52.012Z,21.93
2019-05-13T10:43:31.454Z,23.47
2019-05-13T10:46:04.953Z,22.15
2019-05-13T10:48:42.214Z,20.66
2019-05-13T10:51:18.811Z,20.61
2019-05-13T10:53:59.436Z,22.12
2019-05-13T10:56:32.940Z,23.41
2019-05-13T10:59:12.355Z,22.61
2019-05-13T11:01:48.934Z,22.91
2019-05-13T11:04:25.502Z,23.31
2019-05-13T11:07:03.343Z,24.26
2019-05-13T11:09:41.761Z,24.27
2019-05-13T11:12:17.646Z,24.28
2019-05-13T11:14:55.196Z,22.84
2019-05-13T11:17:31.260Z,21.17
2019-05-13T11:20:13.599Z,20.26
2019-05-13T11:22:49.040Z,19.76
2019-05-13T11:25:24.338Z,20.50
2019-05-13T11:28:01.759Z,21.97
2019-05-13T11:30:37.468Z,22.37
2019-05-13T11:33:16.740Z,22.11
2019-05-13T11:35:53.074Z,20.83
2019-05-13T11:38:32.658Z,20.13
2019-05-13T11:41:07.682Z,19.97
2019-05-13T11:43:45.349Z,19.98
2019-05-13T11:46:22.518Z,19.26
2019-05-13T11:48:58.034Z,18.96
2019-05-13T11:51:33.207Z,20.53
2019-05-13T11:54:08.781Z,22.41
2019-05-13T11:56:50.566Z,23.87
2019-05-13T11:59:29.106Z,24.50
2019-05-13T12:02:05.019Z,25.43
2019-05-13T12:04:43.232Z,25.75
2019-05-13T12:07:18.801Z,25.73
2019-05-13T12:10:02.635Z,25.94
2019-05-13T12:12:44.046Z,26.80
2019-05-13T12:15:30.718Z,28.00
2019-05-13T12:17:57.995Z,28.16
2019-05-13T12:20:35.191Z,28.66
2019-05-13T12:23:15.180Z,29.30
2019-05-13T12:25:53.021Z,29.02
2019-05-13T12:28:29.506Z,27.90
2019-05-13T12:31:08.015Z,27.31
2019-05-13T12:33:45.919Z,26.03
2019-05-13T12:36:24.266Z,24.86
2019-05-13T12:39:03.214Z,23.80
2019-05-13T12:41:38.955Z,23.16
2019-05-13T12:44:16.388Z,21.72
2019-05-13T12:46:54.613Z,21.76
2019-05-13T12:49:33.562Z,22.42
2019-05-13T12:52:07.890Z,23.94
2019-05-13T12:54:45.487Z,25.80
2019-05-13T12:57:23.087Z,25.85
2019-05-13T13:00:04.208Z,26.28
2019-05-13T13:02:50.400Z,25.79
2019-05-13T13:05:26.553Z,25.28
2019-05-13T13:08:23.984Z,24.29
2019-05-13T13:10:42.742Z,23.67
2019-05-13T13:13:52.589Z,22.48
2019-05-13T13:16:03.856Z,21.13
2019-05-13T13:18:43.214Z,20.50
2019-05-13T13:21:37.956Z,19.72
2019-05-13T13:24:15.368Z,20.10
2019-05-13T13:26:53.429Z,22.53
2019-05-13T13:29:34.214Z,23.23
2019-05-13T13:32:13.651Z,24.21
2019-05-13T13:34:54.843Z,25.34
2019-05-13T13:37:34.957Z,24.50
2019-05-13T13:40:28.178Z,23.51
2019-05-13T13:43:05.653Z,22.72
2019-05-13T13:46:06.622Z,21.90
2019-05-13T13:48:25.600Z,20.64
2019-05-13T13:51:04.045Z,19.89
2019-05-13T13:53:49.080Z,18.83
2019-05-13T13:56:25.761Z,18.15
2019-05-13T13:59:04.363Z,17.99
2019-05-13T14:01:54.415Z,17.95
2019-05-13T14:04:29.743Z,17.88
2019-05-13T14:07:31.294Z,17.91
2019-05-13T14:09:43.726Z,17.90
2019-05-13T14:15:22.131Z,18.20
2019-05-13T14:18:06.063Z,18.49
2019-05-13T14:20:46.443Z,19.40
2019-05-13T14:26:33.325Z,19.31
2019-05-13T14:29:15.657Z,19.00
2019-05-13T14:31:57.473Z,18.90
2019-05-13T14:34:42.343Z,18.47
2019-05-13T14:37:31.914Z,18.13
2019-05-13T14:40:22.424Z,17.63
2019-05-13T14:43:05.798Z,17.14
2019-05-13T14:45:55.170Z,16.99
2019-05-13T14:48:47.921Z,17.33
2019-05-13T14:51:29.155Z,19.83
2019-05-13T14:54:12.311Z,22.29
2019-05-13T14:57:02.156Z,22.63
2019-05-13T14:59:37.986Z,21.08
2019-05-13T15:02:17.723Z,20.40
2019-05-13T15:04:54.499Z,19.23
2019-05-13T15:10:41.978Z,18.26
2019-05-13T15:13:31.958Z,17.38
2019-05-13T15:16:22.452Z,16.90
2019-05-13T15:19:11.959Z,16.60
2019-05-13T15:21:53.438Z,16.37
2019-05-13T15:24:35.642Z,16.27
2019-05-13T15:27:13.769Z,16.66
2019-05-13T15:29:51.629Z,17.10
2019-05-13T15:32:28.797Z,18.94
2019-05-13T15:35:10.083Z,19.57
2019-05-13T15:37:45.169Z,19.21
2019-05-13T15:40:31.321Z,18.84
2019-05-13T15:43:14.507Z,18.22
2019-05-13T15:45:51.770Z,17.75
2019-05-13T15:48:27.854Z,17.29
2019-05-13T15:51:06.635Z,16.88
2019-05-13T15:56:41.320Z,16.67
2019-05-13T15:59:21.560Z,17.45
2019-05-13T16:02:18.788Z,19.37
2019-05-13T16:04:50.044Z,19.91
2019-05-13T16:07:21.964Z,19.83
2019-05-13T16:09:57.624Z,19.24
2019-05-13T16:12:33.960Z,18.52
2019-05-13T16:15:14.698Z,17.89
2019-05-13T16:17:47.589Z,17.27
2019-05-13T16:20:22.831Z,16.88
2019-05-13T16:23:02.358Z,16.41
2019-05-13T16:25:37.284Z,16.09
2019-05-13T16:28:16.172Z,15.88
2019-05-13T16:30:51.694Z,15.70
2019-05-13T16:33:35.360Z,15.52
2019-05-13T16:36:12.723Z,15.41
2019-05-13T16:38:49.996Z,15.30
2019-05-13T16:41:25.366Z,15.23
2019-05-13T16:44:02.331Z,15.27
2019-05-13T16:46:38.645Z,15.27
2019-05-13T16:49:33.352Z,15.27
2019-05-13T16:52:08.530Z,15.16
2019-05-13T16:54:54.372Z,14.95
2019-05-13T16:57:36.605Z,14.66
2019-05-13T17:00:15.960Z,14.43
2019-05-13T17:03:02.496Z,14.34
2019-05-13T17:05:42.035Z,14.34
2019-05-13T17:08:23.054Z,14.31
2019-05-13T17:11:02.160Z,14.31
2019-05-13T17:13:36.729Z,14.31
2019-05-13T17:16:16.313Z,14.25
2019-05-13T17:19:04.971Z,14.18
2019-05-13T17:21:46.485Z,14.05
2019-05-13T17:24:22.681Z,13.96
2019-05-13T17:27:03.811Z,13.91
2019-05-13T17:29:41.798Z,13.80
2019-05-13T17:32:31.159Z,13.82
2019-05-13T17:38:36.782Z,13.83
2019-05-13T17:41:26.239Z,13.88
2019-05-13T17:43:59.495Z,13.99
2019-05-13T17:46:35.950Z,14.10
2019-05-13T17:49:11.917Z,14.17
2019-05-13T17:51:54.422Z,14.31
2019-05-13T17:54:31.800Z,14.47
2019-05-13T17:57:08.497Z,14.47
2019-05-13T17:59:45.140Z,14.41
2019-05-13T18:02:22.172Z,14.43
2019-05-13T18:05:03.533Z,14.45
2019-05-13T18:07:41.938Z,14.41
2019-05-13T18:10:25.542Z,14.35
2019-05-13T18:13:03.881Z,14.28
2019-05-13T18:15:39.906Z,14.24
2019-05-13T18:18:40.553Z,14.21
2019-05-13T18:20:55.562Z,14.16
2019-05-13T18:23:30.852Z,14.02
2019-05-13T18:26:06.307Z,14.02
2019-05-13T18:28:42.439Z,13.94
2019-05-13T18:31:17.881Z,13.86
2019-05-13T18:33:56.596Z,13.74
2019-05-13T18:36:33.786Z,13.58
2019-05-13T18:39:12.456Z,13.46
2019-05-13T18:41:48.462Z,13.33
2019-05-13T18:44:23.868Z,13.21
2019-05-13T18:47:01.475Z,13.06
2019-05-13T18:49:36.356Z,12.95
2019-05-13T18:52:12.315Z,12.84
2019-05-13T18:54:51.411Z,12.78
2019-05-13T18:57:27.584Z,12.66
2019-05-13T19:00:02.741Z,12.52
2019-05-13T19:02:46.659Z,12.40
2019-05-13T19:05:35.698Z,12.35
2019-05-13T19:08:12.851Z,12.20
2019-05-13T19:11:07.176Z,12.10
2019-05-13T19:13:58.123Z,12.01
2019-05-13T19:17:07.247Z,11.93
2019-05-13T19:19:45.004Z,11.80
2019-05-13T19:22:24.039Z,11.67
2019-05-13T19:25:06.747Z,11.65
2019-05-13T19:30:56.951Z,11.48
2019-05-13T19:33:33.019Z,11.45
2019-05-13T19:36:17.116Z,11.45
2019-05-13T19:39:27.420Z,11.41
2019-05-13T19:42:23.991Z,11.33
2019-05-13T19:48:32.655Z,11.28
2019-05-13T19:51:07.890Z,11.21
2019-05-13T19:53:44.898Z,11.16
2019-05-13T19:56:21.389Z,11.19
2019-05-13T19:58:57.618Z,11.18
2019-05-13T20:01:33.196Z,11.17
2019-05-13T20:06:47.779Z,11.13
2019-05-13T20:09:52.096Z,11.09
2019-05-13T20:12:31.221Z,11.02
2019-05-13T20:15:19.072Z,10.93
2019-05-13T20:17:55.437Z,10.84
2019-05-13T20:20:42.811Z,10.91
2019-05-13T20:23:21.851Z,10.88
2019-05-13T20:26:03.536Z,10.85
2019-05-13T20:28:41.845Z,10.78
2019-05-13T20:31:18.268Z,10.70
2019-05-13T20:33:55.376Z,10.63
2019-05-13T20:36:32.380Z,10.59
2019-05-13T20:39:11.458Z,10.52
2019-05-13T20:41:45.862Z,10.51
2019-05-13T20:44:22.298Z,10.42
2019-05-13T20:46:58.124Z,10.35
2019-05-13T20:49:33.394Z,10.34
2019-05-13T20:52:12.746Z,10.26
2019-05-13T20:54:47.500Z,10.21
2019-05-13T20:57:28.629Z,10.18
2019-05-13T21:00:06.357Z,10.15
2019-05-13T21:02:43.809Z,10.17
2019-05-13T21:05:21.782Z,10.07
2019-05-13T21:07:58.468Z,10.08
2019-05-13T21:10:35.051Z,9.98
2019-05-13T21:13:12.185Z,9.97
2019-05-13T21:15:47.975Z,9.90
2019-05-13T21:18:24.044Z,9.79
2019-05-13T21:20:59.234Z,9.76
2019-05-13T21:23:35.546Z,9.71
2019-05-13T21:26:14.952Z,9.73
2019-05-13T21:28:47.649Z,9.75
2019-05-13T21:31:23.000Z,9.76
2019-05-13T21:34:02.502Z,9.70
2019-05-13T21:36:37.647Z,9.72
2019-05-13T21:39:13.924Z,9.76
2019-05-13T21:41:51.777Z,9.75
2019-05-13T21:44:29.438Z,9.75
2019-05-13T21:47:05.083Z,9.73
2019-05-13T21:49:42.392Z,9.69
2019-05-13T21:52:17.515Z,9.65
2019-05-13T21:54:52.647Z,9.63
2019-05-13T21:57:32.865Z,9.61
2019-05-13T22:00:09.440Z,9.65
2019-05-13T22:02:46.447Z,9.69
2019-05-13T22:05:22.194Z,9.78
2019-05-13T22:07:58.376Z,9.82
2019-05-13T22:10:33.484Z,9.82
2019-05-13T22:13:08.617Z,9.84
2019-05-13T22:15:43.882Z,9.85
2019-05-13T22:18:19.124Z,9.84
2019-05-13T22:20:54.263Z,9.86
2019-05-13T22:23:31.815Z,9.87
2019-05-13T22:26:06.187Z,9.88
2019-05-13T22:28:41.875Z,9.84
2019-05-13T22:31:18.123Z,9.84
2019-05-13T22:33:54.794Z,9.85
2019-05-13T22:36:31.800Z,9.86
2019-05-13T22:39:07.900Z,9.84
2019-05-13T22:41:43.493Z,9.83
2019-05-13T22:44:18.896Z,9.84
2019-05-13T22:46:54.313Z,9.87
2019-05-13T22:49:31.184Z,9.87
2019-05-13T22:52:07.552Z,9.84
2019-05-13T22:54:42.790Z,9.83
2019-05-13T22:57:21.988Z,9.84
2019-05-13T23:00:01.213Z,9.86
2019-05-13T23:02:42.392Z,9.86
2019-05-13T23:05:17.679Z,9.85
2019-05-13T23:07:55.430Z,9.79
2019-05-13T23:10:31.818Z,9.75
2019-05-13T23:13:08.374Z,9.67
2019-05-13T23:15:43.912Z,9.62
2019-05-13T23:18:23.751Z,9.54
2019-05-13T23:21:02.370Z,9.44
2019-05-13T23:23:37.811Z,9.40
2019-05-13T23:26:13.163Z,9.30
2019-05-13T23:28:52.232Z,9.19
2019-05-13T23:31:32.763Z,9.11
2019-05-13T23:34:11.937Z,9.05
2019-05-13T23:37:11.380Z,9.01
2019-05-13T23:39:47.816Z,8.99
2019-05-13T23:42:23.988Z,8.95
2019-05-13T23:45:00.348Z,8.92
2019-05-13T23:47:41.564Z,8.89
2019-05-13T23:50:21.569Z,8.84
2019-05-13T23:52:57.019Z,8.78
2019-05-13T23:55:32.822Z,8.72
2019-05-13T23:58:08.416Z,8.69
